Historique des mesures à Cassis (13260), France
Quotidien Résumé Juillet 2, 2017 Unités:  Métrique    US   Métrique/US
« Précédent (Jour)
Suivant (Jour) »
Quotidien Hebdomadaire Mensuel Annuel Période au choix
  Maximum: Minimum: Moyenne:
Température: TemperatureC °C 18.1 °C 22.1 °C
Point de rosée: DewpointC °C 9.9 °C 11.7 °C
Humidité: Humidity % 41 % 49 %
Vitesse du vent: 0 km/h 1.8 km/h 24.3 km/h
Rafales: 0 km/h - -
Vent:- - South
Pression: PressurehPa hPa 1011.4 hPa -
Précipitations: 0.0 mm    
Historical Graphs
 
 
Mesures pour : Juillet 2, 2017
Heure Temperature Point de rosée Pression Vent Vitesse du vent Rafales Humidité Pluie (par heure) Conditions
TemperatureC °C DewpointC °C PressurehPa hPa Calm     Humidity % HourlyPrecipMM mm SoftwareType W/m2
00:10 20.1 °C 9.9 °C 1011.4 hPa WNW 43.5 km/h 43.5 km/h 52 % 0.0 mm open2300-1.11 W/m2
01:11 19.6 °C 10.3 °C 1012.4 hPa NNE 1.8 km/h 9.8 km/h 55 % 0.0 mm open2300-1.11 W/m2
02:10 19.2 °C 10.2 °C 1012.1 hPa North 23.8 km/h 33.6 km/h 56 % 0.0 mm open2300-1.11 W/m2
03:10 18.9 °C 10.4 °C 1012.1 hPa NW 34.1 km/h 34.1 km/h 58 % 0.0 mm open2300-1.11 W/m2
04:11 18.6 °C 10.4 °C 1012.4 hPa NNW 14 km/h 26.7 km/h 59 % 0.0 mm open2300-1.11 W/m2
05:10 18.8 °C 10.9 °C 1011.7 hPa NW 41.7 km/h 41.7 km/h 60 % 0.0 mm open2300-1.11 W/m2
07:10 18.1 °C 11.4 °C 1012.4 hPa North 19.2 km/h 23.8 km/h 65 % 0.0 mm open2300-1.11 W/m2
08:11 18.9 °C 11.9 °C 1012.8 hPa WNW 33.2 km/h 33.2 km/h 64 % 0.0 mm open2300-1.11 W/m2
09:10 19.2 °C 11.9 °C 1012.8 hPa North 20.9 km/h 22.5 km/h 63 % 0.0 mm open2300-1.11 W/m2
10:10 21.3 °C 12.7 °C 1012.8 hPa WNW 11.6 km/h 33.6 km/h 58 % 0.0 mm open2300-1.11 W/m2
11:11 24.1 °C 13.1 °C 1013.1 hPa West 19.6 km/h 19.6 km/h 50 % 0.0 mm open2300-1.11 W/m2
12:10 25.7 °C 13.2 °C 1012.8 hPa WNW 23 km/h 23 km/h 46 % 0.0 mm open2300-1.11 W/m2
13:10 26.6 °C 14.0 °C 1012.8 hPa NNE 43.5 km/h 43.5 km/h 46 % 0.0 mm open2300-1.11 W/m2
14:11 27.4 °C 14.0 °C 1012.8 hPa WNW 42.2 km/h 58.6 km/h 44 % 0.0 mm open2300-1.11 W/m2
15:10 27.4 °C 14.0 °C 1012.4 hPa NNE 14.5 km/h 37 km/h 44 % 0.0 mm open2300-1.11 W/m2
16:11 27.9 °C 13.4 °C 1011.7 hPa North 12.2 km/h 23 km/h 41 % 0.0 mm open2300-1.11 W/m2
17:11 27.8 °C 13.7 °C 1011.7 hPa NNW 45.4 km/h 45.4 km/h 42 % 0.0 mm open2300-1.11 W/m2
18:11 27.4 °C 13.0 °C 1011.7 hPa North 46.8 km/h 51 km/h 41 % 0.0 mm open2300-1.11 W/m2
19:10 27.1 °C 13.1 °C 1011.7 hPa West 24.8 km/h 31.4 km/h 42 % 0.0 mm open2300-1.11 W/m2
20:11 25.9 °C 12.7 °C 1011.7 hPa NNW 19.6 km/h 23.8 km/h 44 % 0.0 mm open2300-1.11 W/m2
21:10 24.3 °C 12.6 °C 1011.7 hPa North 16.3 km/h 33.6 km/h 48 % 0.0 mm open2300-1.11 W/m2
22:11 23.5 °C 12.5 °C 1012.8 hPa NNE 16.3 km/h 22.5 km/h 50 % 0.0 mm open2300-1.11 W/m2
23:10 23.1 °C 12.1 °C 1012.8 hPa NNW 14.5 km/h 19.2 km/h 50 % 0.0 mm open2300-1.11 W/m2
Observations météo à CASSIS
WU-History script by Weather Underground - 1 mb